Time;durP1;ratioP1;P1;durP2;ratioP2;P2;SDS_P1;SDS_P2;PMS_P1;PMS_P2;Temp;Humidity;BMP_temperature;BMP_pressure;BME280_temperature;BME280_humidity;BME280_pressure;Samples;Min_cycle;Max_cycle;Signal;HPM_P1;HPM_P2
2022/05/27 00:02:04;;;;;;;3.50;1.92;;;22.20;52.70;21.20;101335.00;;;;5040809;28;20094;-70
2022/05/27 00:04:50;;;;;;;3.78;1.65;;;22.20;52.80;21.20;101329.00;;;;5042038;28;20044;-70
2022/05/27 00:07:36;;;;;;;3.45;2.10;;;22.20;52.80;21.20;101330.00;;;;5038262;28;20071;-70
2022/05/27 00:10:23;;;;;;;6.30;2.15;;;22.20;52.80;21.20;101318.00;;;;5040642;28;20048;-70
2022/05/27 00:13:09;;;;;;;2.90;1.77;;;22.20;52.80;21.20;101321.00;;;;5037814;28;20032;-70
2022/05/27 00:15:55;;;;;;;5.18;2.22;;;22.20;52.90;21.20;101318.00;;;;5054501;28;20128;-70
2022/05/27 00:18:41;;;;;;;5.05;2.78;;;22.20;52.90;21.20;101317.00;;;;5040527;28;20036;-70
2022/05/27 00:21:27;;;;;;;5.00;2.25;;;22.20;52.90;21.20;101314.00;;;;5032877;28;20037;-70
2022/05/27 00:24:13;;;;;;;4.40;2.63;;;22.20;53.00;21.10;101318.00;;;;5048072;28;20430;-70
2022/05/27 00:27:01;;;;;;;5.65;2.65;;;22.10;53.00;21.10;101312.00;;;;5043897;28;20549;-70
2022/05/27 00:29:47;;;;;;;3.72;2.53;;;22.10;53.00;21.10;101306.00;;;;5048824;28;20049;-70
2022/05/27 00:32:33;;;;;;;4.72;2.60;;;22.10;53.00;21.10;101303.00;;;;5041474;28;20056;-70
2022/05/27 00:35:19;;;;;;;4.32;2.50;;;22.10;53.10;21.10;101299.00;;;;5046796;28;20045;-70
2022/05/27 00:38:05;;;;;;;5.05;2.65;;;22.10;53.10;21.10;101302.00;;;;5043239;28;20460;-70
2022/05/27 00:40:55;;;;;;;4.50;2.90;;;22.10;53.10;21.10;101304.00;;;;5052324;28;20048;-70
2022/05/27 00:43:42;;;;;;;4.80;3.03;;;22.10;53.20;21.10;101300.00;;;;5061807;28;20036;-70
2022/05/27 00:46:32;;;;;;;4.47;2.90;;;22.00;53.20;21.10;101296.00;;;;5041771;28;20042;-70
2022/05/27 00:49:24;;;;;;;6.13;3.28;;;22.10;53.30;21.10;101296.00;;;;5031317;28;20127;-70
2022/05/27 00:52:12;;;;;;;3.88;3.05;;;22.00;53.40;21.00;101299.00;;;;5043407;28;20037;-70
2022/05/27 00:55:00;;;;;;;4.50;2.92;;;22.00;53.30;21.00;101286.00;;;;5032135;28;20047;-70
2022/05/27 00:58:02;;;;;;;4.15;3.10;;;22.00;53.30;21.00;101284.00;;;;5055900;28;20041;-71
2022/05/27 01:00:48;;;;;;;5.40;2.78;;;22.00;53.40;21.00;101287.00;;;;5042305;28;20033;-70
2022/05/27 01:03:34;;;;;;;4.57;3.10;;;22.00;53.30;21.00;101290.00;;;;5045767;28;20045;-70
2022/05/27 01:06:20;;;;;;;4.53;2.97;;;22.00;53.30;21.00;101306.00;;;;5037620;28;20041;-71
2022/05/27 01:09:06;;;;;;;4.28;2.63;;;22.00;53.40;21.00;101320.00;;;;5042030;28;20456;-70
2022/05/27 01:12:19;;;;;;;4.53;2.55;;;22.00;53.30;21.00;101358.00;;;;5044650;28;20041;-70
2022/05/27 01:16:00;;;;;;;3.50;2.35;;;22.00;54.20;21.10;101352.00;;;;5056912;28;20437;-70
2022/05/27 01:22:58;;;;;;;2.63;1.70;;;22.00;53.30;21.10;101361.00;;;;5053069;28;20032;-70
2022/05/27 01:26:03;;;;;;;2.70;1.83;;;22.00;53.20;21.10;101358.00;;;;5055418;28;20043;-70
2022/05/27 01:29:00;;;;;;;3.17;1.70;;;22.00;53.20;21.10;101359.00;;;;5040158;28;20041;-70
2022/05/27 01:32:11;;;;;;;4.30;2.22;;;22.00;53.30;21.10;101357.00;;;;5040895;28;20051;-70
2022/05/27 01:35:15;;;;;;;2.10;1.35;;;22.00;53.20;21.20;101355.00;;;;5049860;28;20067;-70
2022/05/27 01:38:12;;;;;;;1.85;1.40;;;21.90;53.20;21.20;101364.00;;;;5044101;28;20033;-70
2022/05/27 01:41:03;;;;;;;2.80;1.20;;;22.00;53.20;21.20;101349.00;;;;5043908;28;20047;-70
2022/05/27 01:43:59;;;;;;;1.17;0.98;;;22.00;53.20;21.20;101356.00;;;;5039716;28;20504;-70
2022/05/27 01:46:45;;;;;;;1.92;0.98;;;21.90;53.10;21.20;101350.00;;;;5043392;28;20037;-70
2022/05/27 01:50:01;;;;;;;1.23;1.13;;;22.00;53.00;21.20;101337.00;;;;5040968;28;20045;-70
2022/05/27 01:53:18;;;;;;;1.58;1.10;;;22.00;53.00;21.20;101344.00;;;;5031607;28;20091;-70
2022/05/27 01:56:23;;;;;;;1.83;0.95;;;22.00;52.90;21.20;101344.00;;;;5042331;28;20261;-70
2022/05/27 01:59:28;;;;;;;3.47;0.77;;;22.00;52.80;21.20;101349.00;;;;5037753;28;20044;-70
2022/05/27 02:02:18;;;;;;;1.80;0.90;;;22.00;52.90;21.20;101331.00;;;;5039107;28;20036;-70
2022/05/27 02:05:15;;;;;;;1.95;0.70;;;22.00;52.80;21.20;101329.00;;;;5042360;28;20040;-70
2022/05/27 02:08:24;;;;;;;1.80;0.63;;;22.00;52.90;21.20;101343.00;;;;5055467;28;20453;-70
2022/05/27 02:11:19;;;;;;;2.13;0.90;;;22.00;52.90;21.20;101346.00;;;;5050448;28;20057;-70
2022/05/27 02:14:14;;;;;;;1.67;0.70;;;22.00;52.80;21.20;101347.00;;;;5042219;28;20032;-70
2022/05/27 02:17:04;;;;;;;1.85;0.80;;;22.00;52.70;21.20;101359.00;;;;5053762;28;20061;-70
2022/05/27 02:19:55;;;;;;;1.08;0.70;;;22.10;52.80;21.20;101352.00;;;;5028866;28;20041;-70
2022/05/27 02:22:46;;;;;;;3.83;0.60;;;22.10;52.80;21.20;101358.00;;;;5043111;28;20041;-70
2022/05/27 02:25:37;;;;;;;1.60;0.40;;;22.00;52.70;21.20;101341.00;;;;5043992;28;20617;-70
2022/05/27 02:28:34;;;;;;;0.52;0.52;;;22.10;52.70;21.20;101346.00;;;;5031438;28;20118;-70
2022/05/27 02:31:23;;;;;;;1.42;0.60;;;22.00;52.60;21.20;101343.00;;;;5037184;28;20181;-70
2022/05/27 02:37:28;;;;;;;3.00;0.50;;;22.10;52.60;21.20;101355.00;;;;5045310;28;20173;-70
2022/05/27 02:40:32;;;;;;;1.20;0.63;;;22.10;52.60;21.20;101356.00;;;;5039950;28;20054;-70
2022/05/27 02:43:32;;;;;;;0.98;0.57;;;22.00;52.50;21.20;101358.00;;;;5039277;28;20582;-70
2022/05/27 02:46:27;;;;;;;0.95;0.60;;;22.00;52.50;21.20;101366.00;;;;5029901;28;20045;-70
2022/05/27 02:50:05;;;;;;;1.80;0.68;;;22.10;52.60;21.10;101358.00;;;;5037346;28;20072;-70
2022/05/27 02:53:10;;;;;;;3.15;0.60;;;22.00;52.50;21.10;101357.00;;;;5031746;28;20405;-70
2022/05/27 02:56:18;;;;;;;1.73;0.68;;;22.10;52.60;21.10;101352.00;;;;5028401;28;20140;-70
2022/05/27 02:59:05;;;;;;;0.82;0.70;;;22.00;52.50;21.10;101352.00;;;;5049634;28;20403;-70
2022/05/27 03:01:51;;;;;;;1.90;0.57;;;22.00;52.50;21.10;101359.00;;;;5057054;28;20490;-70
2022/05/27 03:04:43;;;;;;;1.55;0.63;;;22.10;52.60;21.10;101363.00;;;;5054520;28;20040;-70
2022/05/27 03:07:53;;;;;;;1.00;0.52;;;22.00;52.60;21.10;101366.00;;;;5050531;28;20352;-71
2022/05/27 03:11:03;;;;;;;1.42;0.63;;;22.00;52.60;21.10;101362.00;;;;5044426;28;20051;-70
2022/05/27 03:14:19;;;;;;;2.70;0.68;;;22.00;52.60;21.10;101355.00;;;;5056632;28;20037;-70
2022/05/27 03:17:26;;;;;;;1.13;0.70;;;22.00;52.60;21.10;101346.00;;;;5040699;28;20077;-70
2022/05/27 03:20:44;;;;;;;4.00;1.40;;;22.00;52.60;21.10;101357.00;;;;5044002;28;20064;-70
2022/05/27 03:23:55;;;;;;;0.45;0.45;;;22.00;52.60;21.10;101344.00;;;;5027397;28;20045;-70
2022/05/27 03:26:59;;;;;;;1.92;0.80;;;22.00;52.60;21.10;101355.00;;;;5054630;28;20064;-70
2022/05/27 03:30:14;;;;;;;3.25;1.10;;;22.00;52.60;21.10;101360.00;;;;5045019;28;20111;-70
2022/05/27 03:33:39;;;;;;;2.10;0.63;;;22.00;52.70;21.10;101360.00;;;;5036641;28;20103;-70
2022/05/27 03:36:45;;;;;;;1.90;0.70;;;22.00;52.60;21.10;101364.00;;;;5053936;28;20121;-70
2022/05/27 03:39:59;;;;;;;1.05;0.70;;;22.00;52.70;21.10;101365.00;;;;5044063;28;20041;-70
2022/05/27 03:42:45;;;;;;;6.63;0.93;;;22.00;52.60;21.10;101361.00;;;;5048746;28;20452;-70
2022/05/27 03:45:31;;;;;;;1.42;0.77;;;22.00;52.60;21.10;101356.00;;;;5074596;28;20052;-70
2022/05/27 03:48:17;;;;;;;1.80;1.00;;;22.00;52.70;21.10;101346.00;;;;5059990;28;20437;-70
2022/05/27 03:51:37;;;;;;;1.90;1.15;;;22.00;52.60;21.10;101356.00;;;;5061377;28;20045;-70
2022/05/27 03:54:23;;;;;;;1.52;1.00;;;22.00;52.60;21.10;101355.00;;;;5042157;28;20497;-70
2022/05/27 03:57:09;;;;;;;2.15;0.60;;;22.00;52.60;21.10;101356.00;;;;5059213;28;20037;-71
2022/05/27 03:59:55;;;;;;;1.52;0.63;;;22.00;52.60;21.10;101361.00;;;;5041891;28;20624;-70
2022/05/27 04:02:41;;;;;;;1.10;0.50;;;22.00;52.60;21.10;101361.00;;;;5042460;28;20045;-70
2022/05/27 04:05:27;;;;;;;2.00;0.70;;;22.00;52.60;21.20;101360.00;;;;5040362;28;20052;-70
2022/05/27 04:08:14;;;;;;;1.83;0.88;;;22.00;52.60;21.20;101362.00;;;;5040794;28;20037;-70
2022/05/27 04:11:00;;;;;;;3.25;0.70;;;22.00;52.60;21.20;101364.00;;;;5038606;28;20049;-70
2022/05/27 04:13:46;;;;;;;1.08;0.50;;;22.00;52.60;21.20;101371.00;;;;5052597;28;20045;-70
2022/05/27 04:16:33;;;;;;;2.58;0.80;;;22.00;52.60;21.20;101369.00;;;;5061773;28;20054;-70
2022/05/27 04:19:19;;;;;;;1.85;0.73;;;22.00;52.50;21.20;101372.00;;;;5037220;28;20051;-70
2022/05/27 04:22:05;;;;;;;1.45;0.70;;;22.00;52.60;21.20;101370.00;;;;5059635;28;20052;-71
2022/05/27 04:24:51;;;;;;;3.03;1.02;;;22.00;52.50;21.20;101362.00;;;;5052626;28;20049;-70
2022/05/27 04:27:37;;;;;;;1.90;0.90;;;22.00;52.50;21.20;101355.00;;;;5059840;28;20465;-71
2022/05/27 04:30:24;;;;;;;1.88;0.77;;;22.00;52.40;21.20;101360.00;;;;5042325;28;20048;-70
2022/05/27 04:33:10;;;;;;;2.50;0.90;;;22.00;52.50;21.10;101348.00;;;;5041191;28;20533;-70
2022/05/27 04:35:57;;;;;;;2.53;0.70;;;22.10;52.50;21.20;101346.00;;;;5057510;28;20047;-70
2022/05/27 04:38:43;;;;;;;1.57;0.70;;;22.00;52.40;21.20;101347.00;;;;5039194;28;20038;-70
2022/05/27 04:41:29;;;;;;;2.47;1.00;;;22.00;52.40;21.10;101363.00;;;;5066853;28;20045;-70
2022/05/27 04:44:15;;;;;;;2.08;0.60;;;22.10;52.40;21.10;101363.00;;;;5038993;28;20067;-70
2022/05/27 04:47:01;;;;;;;2.00;0.80;;;22.00;52.40;21.10;101362.00;;;;5046100;28;20424;-70
2022/05/27 04:49:56;;;;;;;2.33;1.02;;;22.00;52.40;21.10;101366.00;;;;5066842;28;20044;-70
2022/05/27 04:52:42;;;;;;;2.58;0.70;;;22.00;52.40;21.10;101369.00;;;;5061654;28;20081;-70
2022/05/27 04:55:30;;;;;;;1.50;0.70;;;22.00;52.40;21.10;101371.00;;;;5047228;28;20041;-70
2022/05/27 04:58:16;;;;;;;1.38;0.65;;;22.00;52.30;21.10;101372.00;;;;5071472;28;20124;-70
2022/05/27 05:01:02;;;;;;;0.98;0.60;;;22.00;52.40;21.10;101382.00;;;;5046869;28;20470;-71
2022/05/27 05:03:48;;;;;;;2.97;0.80;;;22.00;52.40;21.10;101383.00;;;;5056352;28;20046;-70
2022/05/27 05:06:34;;;;;;;1.83;0.70;;;22.00;52.40;21.10;101381.00;;;;5056533;28;20048;-70
2022/05/27 05:09:20;;;;;;;2.72;0.80;;;22.00;52.40;21.10;101383.00;;;;5057338;28;20049;-70
2022/05/27 05:12:07;;;;;;;4.43;1.05;;;22.00;52.40;21.10;101388.00;;;;5042953;28;20474;-70
2022/05/27 05:14:53;;;;;;;2.05;0.88;;;22.00;53.10;21.10;101384.00;;;;5033681;28;20380;-71
2022/05/27 05:17:39;;;;;;;3.00;0.80;;;22.00;52.30;21.10;101394.00;;;;5052603;28;20037;-70
2022/05/27 05:20:29;;;;;;;2.75;0.88;;;22.00;52.30;21.10;101388.00;;;;5046969;28;20379;-70
2022/05/27 05:23:15;;;;;;;4.93;1.73;;;22.00;52.30;21.10;101390.00;;;;5031371;28;20625;-71
2022/05/27 05:26:01;;;;;;;2.55;0.90;;;22.00;52.30;21.10;101394.00;;;;5045116;28;20425;-70
2022/05/27 05:28:47;;;;;;;3.20;1.10;;;22.00;52.30;21.10;101395.00;;;;5056361;28;20036;-70
2022/05/27 05:31:33;;;;;;;3.45;1.38;;;22.00;53.00;21.10;101401.00;;;;5063318;28;20406;-70
2022/05/27 05:34:19;;;;;;;3.35;1.17;;;22.00;52.30;21.10;101400.00;;;;5061126;28;20056;-70
2022/05/27 05:37:05;;;;;;;2.65;0.93;;;22.00;52.30;21.10;101399.00;;;;5059521;28;20044;-70
2022/05/27 05:39:52;;;;;;;1.88;0.85;;;22.00;52.20;21.10;101400.00;;;;5063060;28;20470;-70
2022/05/27 05:42:38;;;;;;;4.45;1.30;;;22.00;52.30;21.10;101409.00;;;;5043902;28;20063;-70
2022/05/27 05:45:24;;;;;;;2.65;1.02;;;22.00;52.20;21.10;101397.00;;;;5071510;28;20041;-70
2022/05/27 05:48:10;;;;;;;3.63;1.40;;;22.00;52.20;21.00;101403.00;;;;5033182;28;20509;-70
2022/05/27 05:50:57;;;;;;;4.22;1.13;;;22.00;52.20;21.00;101395.00;;;;5039850;28;20040;-70
2022/05/27 05:53:43;;;;;;;4.10;0.90;;;22.00;52.20;21.00;101404.00;;;;5045797;28;20041;-70
2022/05/27 05:56:33;;;;;;;3.85;0.95;;;22.00;52.30;21.00;101391.00;;;;5042888;28;20056;-70
2022/05/27 05:59:19;;;;;;;4.75;1.20;;;22.00;52.60;21.00;101404.00;;;;5040989;28;20052;-70
2022/05/27 06:02:07;;;;;;;5.10;1.10;;;22.00;52.30;21.00;101401.00;;;;5070223;28;20044;-71
2022/05/27 06:04:53;;;;;;;2.67;0.88;;;22.00;52.30;21.00;101407.00;;;;5047102;28;20052;-71
2022/05/27 06:07:39;;;;;;;2.53;1.00;;;22.00;52.30;21.00;101406.00;;;;5061777;28;20286;-71
2022/05/27 06:10:25;;;;;;;3.35;1.00;;;22.00;52.20;21.00;101394.00;;;;5030068;28;20040;-71
2022/05/27 06:13:11;;;;;;;2.30;1.30;;;22.00;52.30;21.00;101399.00;;;;5044148;28;20047;-71
2022/05/27 06:15:57;;;;;;;3.03;1.10;;;21.90;52.20;21.00;101411.00;;;;5046012;28;20524;-71
2022/05/27 06:18:45;;;;;;;1.77;0.70;;;22.00;52.30;21.00;101410.00;;;;5043324;28;20045;-71
2022/05/27 06:21:32;;;;;;;4.57;1.38;;;22.00;52.30;21.00;101405.00;;;;5040508;28;20041;-71
2022/05/27 06:24:18;;;;;;;2.72;0.82;;;22.00;52.30;21.00;101411.00;;;;5063594;28;20457;-71
2022/05/27 06:27:06;;;;;;;4.10;1.02;;;22.00;52.30;21.00;101406.00;;;;5062101;28;20040;-71
2022/05/27 06:36:01;;;;;;;3.80;0.90;;;22.00;52.00;21.00;101407.00;;;;5055092;28;20044;-70
2022/05/27 06:38:47;;;;;;;4.10;1.40;;;22.00;52.00;21.00;101417.00;;;;5066277;28;20120;-71
2022/05/27 06:41:34;;;;;;;3.40;1.20;;;22.00;51.90;20.90;101415.00;;;;5057329;28;20044;-71
2022/05/27 06:44:21;;;;;;;3.38;1.00;;;22.00;51.90;20.90;101409.00;;;;5061609;28;20048;-71
2022/05/27 06:47:08;;;;;;;3.40;1.70;;;21.90;51.60;20.90;101415.00;;;;5062241;28;20043;-71
2022/05/27 06:49:54;;;;;;;2.38;0.93;;;21.90;51.70;20.90;101421.00;;;;5072487;28;20131;-71
2022/05/27 06:52:41;;;;;;;7.40;1.67;;;21.90;51.70;20.90;101412.00;;;;5044964;28;20076;-71
2022/05/27 06:55:27;;;;;;;7.97;1.30;;;21.90;51.60;20.90;101415.00;;;;5051500;28;20363;-71
2022/05/27 06:58:13;;;;;;;4.47;1.17;;;21.90;51.70;20.90;101433.00;;;;5046872;28;20064;-71
2022/05/27 07:00:59;;;;;;;7.05;1.13;;;21.90;51.80;20.90;101418.00;;;;5060027;28;20036;-71
2022/05/27 07:03:45;;;;;;;4.65;1.25;;;21.90;51.60;20.90;101421.00;;;;5062045;28;20531;-71
2022/05/27 07:06:37;;;;;;;7.82;2.28;;;21.90;51.70;20.90;101427.00;;;;5062824;28;20053;-71
2022/05/27 07:09:23;;;;;;;3.65;1.30;;;21.90;51.00;20.90;101422.00;;;;5042042;28;20036;-71
2022/05/27 07:12:11;;;;;;;8.20;1.52;;;21.80;50.50;20.90;101416.00;;;;5048132;28;20051;-72
2022/05/27 07:14:57;;;;;;;5.32;1.52;;;21.80;50.10;20.80;101407.00;;;;5068124;28;20079;-71
2022/05/27 07:17:43;;;;;;;5.75;1.40;;;21.80;50.40;20.80;101411.00;;;;5055882;28;20048;-71
2022/05/27 07:20:29;;;;;;;6.95;1.35;;;21.80;50.60;20.80;101400.00;;;;5058269;28;20103;-71
2022/05/27 07:23:17;;;;;;;3.50;0.80;;;21.70;50.20;20.80;101405.00;;;;5052237;28;20486;-71
2022/05/27 07:26:03;;;;;;;3.50;1.00;;;21.70;50.60;20.80;101398.00;;;;5057532;28;20077;-72
2022/05/27 07:28:49;;;;;;;3.38;1.10;;;21.80;50.80;20.80;101401.00;;;;5052603;28;20267;-71
2022/05/27 07:31:36;;;;;;;6.80;1.17;;;21.80;50.70;20.80;101400.00;;;;5054046;28;20048;-72
2022/05/27 07:34:22;;;;;;;6.30;1.25;;;21.80;50.90;20.90;101400.00;;;;5056033;28;20469;-72
2022/05/27 07:37:08;;;;;;;4.82;1.00;;;21.80;50.80;20.90;101414.00;;;;5045150;28;20115;-71
2022/05/27 07:39:54;;;;;;;8.48;1.42;;;21.80;49.60;20.90;101425.00;;;;5055290;28;20040;-71
2022/05/27 07:42:41;;;;;;;2.85;0.77;;;21.80;49.50;20.80;101411.00;;;;5057731;28;20394;-72
2022/05/27 07:45:27;;;;;;;4.00;1.17;;;21.80;48.50;20.80;101399.00;;;;5046526;28;20075;-71
2022/05/27 07:48:13;;;;;;;8.73;1.33;;;21.80;48.50;20.80;101435.00;;;;5042839;28;20049;-71
2022/05/27 07:50:59;;;;;;;4.55;1.50;;;21.80;47.60;20.70;101412.00;;;;5040029;28;20047;-72
2022/05/27 07:53:45;;;;;;;3.58;0.95;;;21.80;46.80;20.70;101420.00;;;;5057120;28;20063;-71
2022/05/27 07:56:32;;;;;;;5.43;1.10;;;21.70;46.40;20.70;101425.00;;;;5043318;28;20040;-71
2022/05/27 07:59:18;;;;;;;9.18;1.77;;;21.70;46.00;20.60;101423.00;;;;5042744;28;20048;-71
2022/05/27 08:02:04;;;;;;;5.20;1.30;;;21.70;46.20;20.60;101436.00;;;;5054380;28;20679;-71
2022/05/27 08:04:53;;;;;;;4.47;1.20;;;21.70;46.00;20.60;101443.00;;;;5058094;28;20098;-71
2022/05/27 08:07:39;;;;;;;3.75;1.13;;;21.60;45.80;20.50;101455.00;;;;5046048;28;20105;-72
2022/05/27 08:10:31;;;;;;;5.97;1.38;;;21.60;45.20;20.50;101446.00;;;;5037435;28;20526;-72
2022/05/27 08:13:17;;;;;;;7.82;1.60;;;21.60;44.40;20.40;101430.00;;;;5032851;28;20038;-72
2022/05/27 08:16:05;;;;;;;7.30;1.38;;;21.50;45.40;20.40;101428.00;;;;5035623;28;20033;-76
2022/05/27 08:18:51;;;;;;;6.30;1.10;;;21.50;45.30;20.40;101437.00;;;;5043634;28;20048;-73
2022/05/27 08:21:37;;;;;;;3.08;1.23;;;21.50;45.80;20.40;101439.00;;;;5058401;28;20032;-72
2022/05/27 08:24:24;;;;;;;5.45;1.40;;;21.40;45.50;20.40;101445.00;;;;5039938;28;20136;-73
2022/05/27 08:27:10;;;;;;;3.33;1.33;;;21.40;45.30;20.40;101446.00;;;;5054397;28;20350;-73
2022/05/27 08:29:56;;;;;;;6.28;1.60;;;21.40;45.40;20.40;101439.00;;;;5044070;28;20192;-72
2022/05/27 08:32:42;;;;;;;6.72;1.70;;;21.40;45.40;20.40;101441.00;;;;5045696;28;20039;-73
2022/05/27 08:38:34;;;;;;;7.53;1.35;;;21.30;45.70;20.30;101447.00;;;;5047749;28;20045;-73
2022/05/27 08:41:42;;;;;;;6.85;1.80;;;21.30;45.80;20.30;101440.00;;;;5048226;28;20447;-73
2022/05/27 08:44:57;;;;;;;6.85;1.40;;;21.30;45.00;20.30;101446.00;;;;5060696;28;20494;-73
2022/05/27 08:47:52;;;;;;;5.63;1.38;;;21.30;45.30;20.30;101456.00;;;;5036428;28;20049;-73
2022/05/27 08:51:04;;;;;;;5.47;1.10;;;21.30;44.60;20.30;101458.00;;;;5041962;28;20478;-72
2022/05/27 08:53:58;;;;;;;4.47;1.30;;;21.20;44.80;20.20;101456.00;;;;5057429;28;20086;-73
2022/05/27 08:59:57;;;;;;;6.82;1.33;;;21.20;43.50;20.20;101461.00;;;;5066475;28;20068;-72
2022/05/27 09:03:00;;;;;;;5.65;1.00;;;21.20;43.80;20.20;101470.00;;;;5053569;28;20368;-73
2022/05/27 09:06:13;;;;;;;5.45;1.27;;;21.20;43.30;20.20;101477.00;;;;5060189;28;20452;-72
2022/05/27 09:08:59;;;;;;;6.25;1.35;;;21.20;43.30;20.20;101448.00;;;;5059046;28;20048;-73
2022/05/27 09:12:08;;;;;;;4.95;1.55;;;21.20;42.90;20.20;101465.00;;;;5046094;28;20115;-74
2022/05/27 09:15:43;;;;;;;6.00;1.40;;;21.10;42.40;20.20;101463.00;;;;5043993;28;20282;-73
2022/05/27 09:18:49;;;;;;;7.43;2.08;;;21.10;42.80;20.20;101468.00;;;;5066505;28;20072;-73
2022/05/27 09:22:24;;;;;;;2.33;1.05;;;21.10;42.10;20.20;101484.00;;;;5042881;28;20560;-73
2022/05/27 09:26:03;;;;;;;5.53;1.45;;;21.10;42.80;20.20;101467.00;;;;5037129;28;20098;-73
2022/05/27 09:29:29;;;;;;;3.65;1.35;;;21.10;42.60;20.10;101471.00;;;;5042792;28;20051;-72
2022/05/27 09:32:30;;;;;;;4.22;1.13;;;21.10;42.10;20.10;101490.00;;;;5061672;28;20048;-73
2022/05/27 09:35:26;;;;;;;5.30;1.30;;;21.10;42.30;20.10;101502.00;;;;5059302;28;20041;-72
2022/05/27 09:38:23;;;;;;;6.60;1.42;;;21.10;41.40;20.10;101499.00;;;;5054257;28;20045;-72
2022/05/27 09:41:23;;;;;;;5.10;2.00;;;21.10;41.30;20.10;101488.00;;;;5040059;28;20284;-76
2022/05/27 09:44:34;;;;;;;5.10;1.48;;;21.10;41.90;20.10;101485.00;;;;5041443;28;20041;-71
2022/05/27 09:47:29;;;;;;;3.65;1.17;;;21.10;41.70;20.10;101491.00;;;;5057181;28;20084;-72
2022/05/27 09:50:43;;;;;;;4.93;1.10;;;21.10;41.90;20.10;101495.00;;;;5046047;28;20072;-72
2022/05/27 09:53:36;;;;;;;4.07;1.30;;;21.00;41.30;20.10;101496.00;;;;5036486;28;20044;-74
2022/05/27 09:56:36;;;;;;;5.40;1.55;;;21.00;42.10;20.10;101484.00;;;;5047317;28;20037;-73
2022/05/27 09:59:56;;;;;;;7.65;1.70;;;21.10;42.20;20.10;101485.00;;;;5049809;28;20076;-72
2022/05/27 10:02:42;;;;;;;2.90;1.20;;;21.10;42.30;20.20;101482.00;;;;5041380;28;20044;-71
2022/05/27 10:05:28;;;;;;;7.15;1.77;;;21.10;42.70;20.20;101503.00;;;;5062154;28;20036;-71
2022/05/27 10:08:31;;;;;;;4.93;1.48;;;21.10;42.30;20.20;101494.00;;;;5045850;28;20037;-72
2022/05/27 10:11:25;;;;;;;5.00;1.23;;;21.10;41.80;20.20;101501.00;;;;5056428;28;20051;-71
2022/05/27 10:14:24;;;;;;;4.35;1.13;;;21.10;42.10;20.20;101501.00;;;;5040298;28;20450;-72
2022/05/27 10:17:13;;;;;;;5.70;1.90;;;21.20;42.20;20.20;101507.00;;;;5058434;28;20350;-72
2022/05/27 10:20:31;;;;;;;8.88;1.52;;;21.10;42.80;20.20;101490.00;;;;5042094;28;20040;-71
2022/05/27 10:23:35;;;;;;;8.77;1.63;;;21.10;42.90;20.20;101499.00;;;;5053097;28;20044;-72
2022/05/27 10:26:29;;;;;;;7.63;1.52;;;21.10;42.90;20.20;101495.00;;;;5045968;28;20060;-71
2022/05/27 10:29:16;;;;;;;8.48;1.75;;;21.20;43.40;20.30;101507.00;;;;5047631;28;20409;-72
2022/05/27 10:32:03;;;;;;;7.03;1.98;;;21.20;43.00;20.30;101518.00;;;;5064588;28;20106;-73
2022/05/27 10:34:49;;;;;;;4.47;1.50;;;21.20;42.90;20.30;101502.00;;;;5038634;28;20045;-72
2022/05/27 10:38:07;;;;;;;6.72;1.42;;;21.30;42.30;20.30;101520.00;;;;5042487;28;20045;-72
2022/05/27 10:41:19;;;;;;;6.97;1.63;;;21.30;42.50;20.30;101508.00;;;;5044931;28;20044;-72
2022/05/27 10:44:25;;;;;;;6.80;1.55;;;21.30;41.80;20.30;101502.00;;;;5050896;28;20044;-72
2022/05/27 10:47:52;;;;;;;11.55;2.42;;;21.30;41.90;20.30;101511.00;;;;5060830;28;20567;-71
2022/05/27 10:51:01;;;;;;;9.05;1.60;;;21.30;42.10;20.30;101513.00;;;;5046471;28;20040;-72
2022/05/27 10:54:03;;;;;;;5.05;1.58;;;21.40;42.40;20.30;101512.00;;;;5048268;28;20792;-72
2022/05/27 11:04:29;;;;;;;5.18;1.73;;;21.40;42.30;20.30;101498.00;;;;5035813;28;20103;-71
2022/05/27 11:07:38;;;;;;;7.13;1.50;;;21.40;42.80;20.40;101499.00;;;;5061724;28;20053;-71
2022/05/27 11:10:33;;;;;;;;;;;21.30;42.50;20.30;101504.00;;;;5053907;28;20063;-72
2022/05/27 11:17:08;;;;;;;6.68;1.48;;;21.40;42.70;20.30;101502.00;;;;5035534;28;20095;-71
2022/05/27 11:20:24;;;;;;;6.53;1.40;;;21.40;42.10;20.30;101508.00;;;;5058481;28;20052;-72
2022/05/27 11:23:34;;;;;;;6.55;1.42;;;21.40;42.50;20.30;101516.00;;;;5049918;28;20394;-71
2022/05/27 11:26:43;;;;;;;6.70;1.90;;;21.30;42.50;20.30;101510.00;;;;5031310;28;20409;-72
2022/05/27 11:29:55;;;;;;;7.32;1.67;;;21.40;42.50;20.30;101507.00;;;;5050246;28;20052;-72
2022/05/27 11:33:23;;;;;;;4.82;1.40;;;21.40;42.80;20.40;101525.00;;;;5051425;28;20410;-71
2022/05/27 11:36:46;;;;;;;4.97;1.25;;;21.40;43.00;20.40;101519.00;;;;5054444;28;20044;-71
2022/05/27 11:40:16;;;;;;;5.75;1.55;;;21.40;42.30;20.40;101516.00;;;;5050372;28;20118;-72
2022/05/27 11:43:37;;;;;;;6.13;1.50;;;21.40;41.90;20.30;101513.00;;;;5039490;28;20049;-72
2022/05/27 11:46:55;;;;;;;3.40;1.20;;;21.40;41.50;20.30;101518.00;;;;5050940;28;20273;-71
2022/05/27 11:49:55;;;;;;;7.97;2.90;;;21.40;41.60;20.30;101513.00;;;;5049297;28;20048;-72
2022/05/27 11:53:32;;;;;;;5.72;1.17;;;21.30;41.20;20.30;101506.00;;;;5054753;28;20044;-71
2022/05/27 11:56:46;;;;;;;4.97;1.30;;;21.30;41.50;20.30;101505.00;;;;5047596;28;20048;-71
2022/05/27 11:59:46;;;;;;;6.10;1.55;;;21.30;41.20;20.30;101508.00;;;;5059677;28;20036;-71
2022/05/27 12:02:58;;;;;;;5.53;1.27;;;21.30;41.40;20.30;101500.00;;;;5044454;28;20089;-71
2022/05/27 12:05:57;;;;;;;6.28;1.45;;;21.30;41.20;20.40;101514.00;;;;5056916;28;20040;-71
2022/05/27 12:09:26;;;;;;;8.68;1.48;;;21.40;41.70;20.40;101507.00;;;;5047080;28;20044;-71
2022/05/27 12:12:20;;;;;;;4.95;1.50;;;21.30;41.50;20.40;101504.00;;;;5036286;28;20037;-71
2022/05/27 12:15:10;;;;;;;6.75;1.67;;;21.40;41.10;20.40;101513.00;;;;5040625;28;20048;-71
2022/05/27 12:17:56;;;;;;;4.10;0.95;;;21.40;41.00;20.40;101520.00;;;;5057857;28;20478;-76
2022/05/27 12:20:42;;;;;;;5.82;1.10;;;21.30;41.20;20.40;101510.00;;;;5058871;28;20029;-76
2022/05/27 12:23:28;;;;;;;3.65;1.17;;;21.30;41.50;20.40;101522.00;;;;5053473;28;20485;-75
2022/05/27 12:26:14;;;;;;;4.35;1.13;;;21.30;41.50;20.40;101527.00;;;;5036118;28;20123;-72
2022/05/27 12:29:08;;;;;;;8.32;1.30;;;21.40;41.20;20.50;101515.00;;;;5053114;28;20048;-72
2022/05/27 12:31:54;;;;;;;4.78;1.35;;;21.40;41.20;20.50;101518.00;;;;5069342;28;20375;-72
2022/05/27 12:34:48;;;;;;;6.53;1.20;;;21.40;41.30;20.50;101527.00;;;;5054035;28;20087;-71
2022/05/27 12:37:43;;;;;;;4.82;1.20;;;21.50;41.60;20.50;101509.00;;;;5040410;28;20045;-71
2022/05/27 12:40:30;;;;;;;5.60;1.05;;;21.50;41.10;20.50;101514.00;;;;5060610;28;20036;-72
2022/05/27 12:43:58;;;;;;;5.53;1.73;;;21.50;41.20;20.50;101518.00;;;;5061693;28;20075;-72
2022/05/27 12:46:45;;;;;;;6.43;1.40;;;21.50;40.90;20.50;101513.00;;;;5060360;28;20107;-72
2022/05/27 12:49:35;;;;;;;4.07;1.13;;;21.50;40.90;20.60;101514.00;;;;5049334;28;20127;-71
2022/05/27 12:52:30;;;;;;;8.15;1.67;;;21.50;40.50;20.60;101513.00;;;;5058105;28;20529;-71
2022/05/27 13:02:32;;;;;;;7.30;1.35;;;21.60;41.30;20.70;101525.00;;;;5042729;28;20116;-71
2022/05/27 13:05:19;;;;;;;3.75;1.00;;;21.70;41.80;20.70;101528.00;;;;5047324;28;20069;-71
2022/05/27 13:08:13;;;;;;;16.40;2.05;;;21.70;41.70;20.80;101524.00;;;;5043920;28;20107;-71
2022/05/27 13:10:59;;;;;;;6.30;1.42;;;21.70;41.10;20.80;101534.00;;;;5041161;28;20088;-71
2022/05/27 13:13:45;;;;;;;4.18;1.40;;;21.80;41.10;20.80;101511.00;;;;5039837;28;20084;-71
2022/05/27 13:16:46;;;;;;;5.18;1.73;;;21.80;40.90;20.80;101522.00;;;;5036656;28;20033;-71
2022/05/27 13:19:44;;;;;;;6.65;1.50;;;21.90;40.60;20.80;101519.00;;;;5055166;28;20109;-71
2022/05/27 13:23:01;;;;;;;7.93;1.63;;;21.90;40.90;20.80;101530.00;;;;5031260;28;20041;-71
2022/05/27 13:26:20;;;;;;;11.52;1.52;;;21.90;40.90;20.90;101520.00;;;;5017003;28;20045;-71
2022/05/27 13:29:38;;;;;;;10.32;1.42;;;22.00;40.00;20.90;101515.00;;;;5041201;28;20045;-71